createdAt,value
2022-10-12T00:01:31.750Z,12.05
2022-10-12T00:04:01.080Z,11.93
2022-10-12T00:06:29.069Z,11.98
2022-10-12T00:08:57.060Z,11.85
2022-10-12T00:11:26.199Z,12.05
2022-10-12T00:13:55.101Z,12.22
2022-10-12T00:16:23.970Z,12.24
2022-10-12T00:18:52.270Z,12.10
2022-10-12T00:21:22.150Z,12.22
2022-10-12T00:23:51.067Z,12.07
2022-10-12T00:26:20.202Z,12.04
2022-10-12T00:28:48.658Z,12.09
2022-10-12T00:31:20.705Z,11.98
2022-10-12T00:33:49.155Z,12.10
2022-10-12T00:36:18.642Z,12.14
2022-10-12T00:38:48.016Z,11.87
2022-10-12T00:41:18.930Z,11.95
2022-10-12T00:43:47.644Z,11.65
2022-10-12T00:46:18.850Z,11.68
2022-10-12T00:48:49.176Z,11.28
2022-10-12T00:51:17.718Z,11.48
2022-10-12T00:53:59.207Z,11.51
2022-10-12T00:56:31.309Z,11.63
2022-10-12T00:59:00.975Z,11.30
2022-10-12T01:01:30.109Z,11.45
2022-10-12T01:03:58.138Z,10.98
2022-10-12T01:06:29.195Z,11.05
2022-10-12T01:08:59.068Z,10.82
2022-10-12T01:11:27.136Z,10.77
2022-10-12T01:13:55.073Z,11.10
2022-10-12T01:16:28.244Z,11.06
2022-10-12T01:19:03.030Z,10.65
2022-10-12T01:21:34.968Z,10.53
2022-10-12T01:24:22.497Z,10.54
2022-10-12T01:27:08.887Z,10.97
2022-10-12T01:29:55.604Z,10.88
2022-10-12T01:32:26.888Z,10.99
2022-10-12T01:34:59.170Z,10.87
2022-10-12T01:37:32.543Z,10.99
2022-10-12T01:40:02.858Z,10.78
2022-10-12T01:42:33.669Z,10.62
2022-10-12T01:45:02.296Z,10.92
2022-10-12T01:47:31.891Z,10.61
2022-10-12T01:50:00.321Z,10.67
2022-10-12T01:52:29.711Z,10.25
2022-10-12T01:55:03.596Z,10.08
2022-10-12T01:57:34.214Z,10.07
2022-10-12T02:00:04.510Z,10.16
2022-10-12T02:02:37.599Z,10.45
2022-10-12T02:05:08.236Z,10.36
2022-10-12T02:07:42.226Z,10.58
2022-10-12T02:10:14.276Z,10.59
2022-10-12T02:12:43.503Z,10.61
2022-10-12T02:15:12.898Z,10.81
2022-10-12T02:17:44.300Z,10.60
2022-10-12T02:20:17.226Z,10.65
2022-10-12T02:22:47.739Z,10.53
2022-10-12T02:25:17.960Z,10.75
2022-10-12T02:27:48.969Z,10.72
2022-10-12T02:30:21.374Z,10.75
2022-10-12T02:32:53.891Z,10.77
2022-10-12T02:35:23.913Z,10.45
2022-10-12T02:37:54.974Z,10.43
2022-10-12T02:40:26.084Z,10.59
2022-10-12T02:43:10.051Z,10.50
2022-10-12T02:45:39.858Z,10.57
2022-10-12T02:48:10.556Z,10.53
2022-10-12T02:50:38.806Z,10.75
2022-10-12T02:53:07.194Z,10.94
2022-10-12T02:55:38.920Z,10.67
2022-10-12T02:58:06.896Z,10.82
2022-10-12T03:00:35.042Z,10.85
2022-10-12T03:03:03.003Z,11.03
2022-10-12T03:05:32.088Z,11.07
2022-10-12T03:08:03.858Z,11.31
2022-10-12T03:10:31.860Z,11.28
2022-10-12T03:12:59.795Z,11.50
2022-10-12T03:15:27.922Z,11.24
2022-10-12T03:17:55.898Z,11.27
2022-10-12T03:20:23.890Z,10.96
2022-10-12T03:22:52.277Z,11.09
2022-10-12T03:25:21.564Z,10.94
2022-10-12T03:27:49.569Z,10.82
2022-10-12T03:30:17.541Z,10.92
2022-10-12T03:32:45.530Z,10.92
2022-10-12T03:35:13.484Z,10.64
2022-10-12T03:37:41.648Z,10.79
2022-10-12T03:40:10.535Z,10.80
2022-10-12T03:42:39.834Z,10.60
2022-10-12T03:45:10.347Z,10.72
2022-10-12T03:47:38.755Z,10.96
2022-10-12T03:50:07.526Z,10.88
2022-10-12T03:52:35.506Z,10.68
2022-10-12T03:55:03.466Z,10.74
2022-10-12T03:57:31.415Z,10.85
2022-10-12T04:00:00.690Z,10.40
2022-10-12T04:02:28.687Z,10.37
2022-10-12T04:04:56.675Z,10.46
2022-10-12T04:07:24.699Z,10.19
2022-10-12T04:09:52.652Z,10.29
2022-10-12T04:12:20.672Z,10.20
2022-10-12T04:14:48.667Z,10.14
2022-10-12T04:17:18.032Z,10.32
2022-10-12T04:19:45.986Z,10.34
2022-10-12T04:22:13.968Z,10.38
2022-10-12T04:24:41.975Z,10.44
2022-10-12T04:27:09.928Z,10.39
2022-10-12T04:29:38.199Z,10.09
2022-10-12T04:32:11.547Z,10.13
2022-10-12T04:34:42.171Z,10.19
2022-10-12T04:37:10.500Z,10.17
2022-10-12T04:39:38.519Z,10.18
2022-10-12T04:42:07.081Z,10.12
2022-10-12T04:44:35.159Z,10.12
2022-10-12T04:47:03.445Z,10.15
2022-10-12T04:49:31.713Z,10.20
2022-10-12T04:52:01.053Z,10.20
2022-10-12T04:54:29.049Z,10.27
2022-10-12T04:56:57.077Z,10.25
2022-10-12T04:59:25.471Z,10.27
2022-10-12T05:01:54.350Z,10.23
2022-10-12T05:04:22.673Z,10.54
2022-10-12T05:06:50.704Z,11.02
2022-10-12T05:09:20.032Z,10.98
2022-10-12T05:11:50.122Z,10.82
2022-10-12T05:14:18.158Z,10.94
2022-10-12T05:16:49.094Z,10.91
2022-10-12T05:19:17.055Z,10.75
2022-10-12T05:21:45.119Z,10.68
2022-10-12T05:24:13.138Z,10.76
2022-10-12T05:26:42.461Z,10.61
2022-10-12T05:29:11.084Z,10.48
2022-10-12T05:31:41.167Z,10.28
2022-10-12T05:34:09.297Z,10.31
2022-10-12T05:36:37.372Z,10.44
2022-10-12T05:39:05.685Z,10.24
2022-10-12T05:41:33.688Z,10.43
2022-10-12T05:44:03.048Z,10.53
2022-10-12T05:46:31.069Z,10.55
2022-10-12T05:49:01.519Z,10.65
2022-10-12T05:51:29.525Z,10.79
2022-10-12T05:53:57.471Z,10.71
2022-10-12T05:56:25.655Z,10.42
2022-10-12T05:58:53.599Z,10.53
2022-10-12T06:01:25.047Z,10.78
2022-10-12T06:03:54.702Z,10.59
2022-10-12T06:06:24.876Z,10.69
2022-10-12T06:08:52.868Z,10.88
2022-10-12T06:11:21.204Z,10.53
2022-10-12T06:13:49.297Z,10.34
2022-10-12T06:16:17.335Z,10.33
2022-10-12T06:18:49.014Z,10.37
2022-10-12T06:21:33.957Z,10.43
2022-10-12T06:24:02.894Z,10.42
2022-10-12T06:26:30.905Z,10.49
2022-10-12T06:29:00.584Z,10.55
2022-10-12T06:31:29.149Z,10.57
2022-10-12T06:33:58.523Z,10.65
2022-10-12T06:36:28.818Z,10.46
2022-10-12T06:38:57.026Z,10.99
2022-10-12T06:41:25.179Z,10.93
2022-10-12T06:43:53.233Z,10.83
2022-10-12T06:46:21.261Z,11.16
2022-10-12T06:48:49.321Z,11.52
2022-10-12T06:51:19.176Z,11.27
2022-10-12T06:53:47.280Z,11.42
2022-10-12T06:56:15.392Z,11.24
2022-10-12T06:58:43.427Z,11.21
2022-10-12T07:01:14.453Z,11.22
2022-10-12T07:03:42.500Z,11.12
2022-10-12T07:06:12.158Z,10.96
2022-10-12T07:08:42.134Z,11.08
2022-10-12T07:11:11.517Z,11.34
2022-10-12T07:13:39.798Z,11.24
2022-10-12T07:16:08.416Z,11.28
2022-10-12T07:18:36.514Z,11.19
2022-10-12T07:21:04.745Z,11.40
2022-10-12T07:23:33.319Z,11.60
2022-10-12T07:26:02.785Z,11.64
2022-10-12T07:28:30.922Z,12.24
2022-10-12T07:31:03.103Z,11.86
2022-10-12T07:33:35.026Z,11.73
2022-10-12T07:36:13.730Z,11.91
2022-10-12T07:38:44.885Z,11.85
2022-10-12T07:41:16.624Z,12.01
2022-10-12T07:43:44.654Z,12.07
2022-10-12T07:46:12.655Z,11.66
2022-10-12T07:48:45.637Z,11.78
2022-10-12T07:51:17.104Z,11.75
2022-10-12T07:53:45.173Z,12.05
2022-10-12T07:56:16.990Z,11.84
2022-10-12T07:58:48.919Z,11.80
2022-10-12T08:01:17.540Z,12.05
2022-10-12T08:03:45.885Z,12.11
2022-10-12T08:06:15.225Z,11.95
2022-10-12T08:08:43.275Z,12.07
2022-10-12T08:11:11.950Z,12.15
2022-10-12T08:13:41.481Z,11.95
2022-10-12T08:16:10.983Z,11.88
2022-10-12T08:18:39.122Z,12.07
2022-10-12T08:21:07.773Z,12.29
2022-10-12T08:23:36.124Z,12.52
2022-10-12T08:26:04.700Z,12.48
2022-10-12T08:28:33.059Z,12.83
2022-10-12T08:31:06.407Z,12.59
2022-10-12T08:33:34.438Z,12.57
2022-10-12T08:36:05.269Z,13.45
2022-10-12T08:38:33.240Z,12.90
2022-10-12T08:41:05.907Z,13.29
2022-10-12T08:43:39.995Z,12.91
2022-10-12T08:46:09.716Z,13.28
2022-10-12T08:48:44.908Z,13.88
2022-10-12T08:51:16.805Z,13.22
2022-10-12T08:53:48.541Z,14.37
2022-10-12T08:56:17.787Z,14.25
2022-10-12T08:58:46.856Z,14.46
2022-10-12T09:01:22.285Z,14.11
2022-10-12T09:03:55.293Z,14.17
2022-10-12T09:06:24.934Z,14.21
2022-10-12T09:09:03.658Z,14.30
2022-10-12T09:11:45.172Z,14.59
2022-10-12T09:14:16.836Z,14.08
2022-10-12T09:16:48.168Z,14.57
2022-10-12T09:19:19.318Z,13.88
2022-10-12T09:21:48.551Z,13.90
2022-10-12T09:24:18.413Z,14.14
2022-10-12T09:26:47.426Z,14.15
2022-10-12T09:29:22.829Z,14.01
2022-10-12T09:32:05.545Z,14.16
2022-10-12T09:34:33.637Z,14.22
2022-10-12T09:37:03.188Z,14.37
2022-10-12T09:39:33.151Z,14.42
2022-10-12T09:42:01.204Z,14.31
2022-10-12T09:44:32.217Z,14.53
2022-10-12T09:47:02.649Z,14.42
2022-10-12T09:49:41.795Z,14.27
2022-10-12T09:52:10.102Z,14.47
2022-10-12T09:54:40.394Z,14.88
2022-10-12T09:57:08.592Z,15.45
2022-10-12T09:59:39.376Z,15.42
2022-10-12T10:02:15.271Z,15.12
2022-10-12T10:04:43.982Z,14.90
2022-10-12T10:07:20.764Z,15.12
2022-10-12T10:09:49.605Z,15.25
2022-10-12T10:12:24.836Z,15.65
2022-10-12T10:14:54.319Z,15.77
2022-10-12T10:17:27.157Z,15.98
2022-10-12T10:19:56.387Z,15.57
2022-10-12T10:22:25.280Z,16.21
2022-10-12T10:24:59.001Z,16.29
2022-10-12T10:27:33.195Z,16.12
2022-10-12T10:30:29.507Z,15.88
2022-10-12T10:33:09.991Z,16.30
2022-10-12T10:35:38.120Z,16.41
2022-10-12T10:38:07.388Z,16.13
2022-10-12T10:40:35.569Z,16.14
2022-10-12T10:43:04.849Z,16.33
2022-10-12T10:45:34.599Z,16.36
2022-10-12T10:48:09.410Z,16.38
2022-10-12T10:50:41.580Z,16.71
2022-10-12T10:53:18.245Z,16.95
2022-10-12T10:55:49.278Z,16.83
2022-10-12T10:58:20.900Z,17.12
2022-10-12T11:00:49.566Z,17.30
2022-10-12T11:03:22.204Z,17.03
2022-10-12T11:05:53.264Z,16.77
2022-10-12T11:08:23.226Z,16.94
2022-10-12T11:10:55.494Z,16.83
2022-10-12T11:13:25.686Z,16.41
2022-10-12T11:15:55.520Z,17.02
2022-10-12T11:18:27.189Z,17.24
2022-10-12T11:20:59.188Z,17.31
2022-10-12T11:23:34.190Z,17.23
2022-10-12T11:26:09.140Z,17.19
2022-10-12T11:28:37.758Z,16.76
2022-10-12T11:31:06.628Z,16.93
2022-10-12T11:33:39.169Z,17.28
2022-10-12T11:36:08.676Z,17.30
2022-10-12T11:38:39.183Z,17.40
2022-10-12T11:41:31.454Z,17.36
2022-10-12T11:44:00.635Z,17.78
2022-10-12T11:46:33.578Z,16.93
2022-10-12T11:49:06.833Z,17.64
2022-10-12T11:51:34.830Z,17.34
2022-10-12T11:54:05.088Z,17.27
2022-10-12T11:56:33.959Z,17.11
2022-10-12T11:59:03.740Z,17.27
2022-10-12T12:01:40.830Z,17.78
2022-10-12T12:04:40.700Z,16.99
2022-10-12T12:07:06.921Z,17.46
2022-10-12T12:09:37.003Z,17.85
2022-10-12T12:12:25.013Z,18.14
2022-10-12T12:15:10.952Z,17.00
2022-10-12T12:17:39.025Z,17.73
2022-10-12T12:20:21.886Z,17.48
2022-10-12T12:22:52.290Z,17.87
2022-10-12T12:25:33.544Z,18.42
2022-10-12T12:28:07.531Z,17.26
2022-10-12T12:30:40.055Z,17.27
2022-10-12T12:33:25.650Z,16.88
2022-10-12T12:35:55.362Z,17.11
2022-10-12T12:38:26.381Z,17.52
2022-10-12T12:40:58.791Z,17.52
2022-10-12T12:44:00.064Z,17.35
2022-10-12T12:46:42.934Z,17.12
2022-10-12T12:49:27.286Z,17.08
2022-10-12T12:51:57.911Z,17.03
2022-10-12T12:54:28.292Z,17.92
2022-10-12T12:57:06.469Z,17.67
2022-10-12T12:59:49.353Z,17.36
2022-10-12T13:02:30.679Z,17.67
2022-10-12T13:05:24.707Z,17.13
2022-10-12T13:08:06.923Z,17.09
2022-10-12T13:10:42.958Z,17.56
2022-10-12T13:13:22.580Z,17.09
2022-10-12T13:15:57.324Z,17.38
2022-10-12T13:18:48.857Z,17.54
2022-10-12T13:21:18.707Z,17.62
2022-10-12T13:23:48.716Z,17.72
2022-10-12T13:26:19.401Z,17.06
2022-10-12T13:28:49.886Z,17.14
2022-10-12T13:31:21.011Z,17.42
2022-10-12T13:33:54.823Z,17.75
2022-10-12T13:36:25.082Z,17.35
2022-10-12T13:38:56.513Z,17.16
2022-10-12T13:41:26.852Z,17.35
2022-10-12T13:43:56.487Z,17.51
2022-10-12T13:46:36.219Z,18.10
2022-10-12T13:49:05.223Z,18.27
2022-10-12T13:51:34.913Z,18.13
2022-10-12T13:54:04.032Z,18.53
2022-10-12T13:56:33.986Z,17.35
2022-10-12T13:59:05.523Z,17.39
2022-10-12T14:01:48.260Z,18.05
2022-10-12T14:04:16.236Z,17.61
2022-10-12T14:06:48.672Z,18.40
2022-10-12T14:09:20.664Z,18.07
2022-10-12T14:11:51.031Z,17.68
2022-10-12T14:14:20.622Z,17.21
2022-10-12T14:16:50.891Z,17.49
2022-10-12T14:19:19.781Z,18.54
2022-10-12T14:21:49.021Z,18.27
2022-10-12T14:24:19.055Z,18.20
2022-10-12T14:26:53.432Z,18.50
2022-10-12T14:29:35.670Z,18.28
2022-10-12T14:32:07.094Z,18.01
2022-10-12T14:34:36.677Z,17.89
2022-10-12T14:37:05.848Z,17.84
2022-10-12T14:39:34.272Z,18.17
2022-10-12T14:42:03.244Z,18.09
2022-10-12T14:44:31.249Z,18.10
2022-10-12T14:47:02.862Z,18.58
2022-10-12T14:49:35.609Z,18.11
2022-10-12T14:52:03.659Z,17.32
2022-10-12T14:54:31.658Z,17.84
2022-10-12T14:57:03.508Z,17.85
2022-10-12T14:59:31.481Z,17.51
2022-10-12T15:02:00.850Z,17.48
2022-10-12T15:04:28.820Z,17.75
2022-10-12T15:06:57.023Z,17.70
2022-10-12T15:09:25.202Z,17.96
2022-10-12T15:11:53.291Z,17.56
2022-10-12T15:14:23.618Z,18.06
2022-10-12T15:16:51.620Z,18.07
2022-10-12T15:19:21.330Z,17.82
2022-10-12T15:21:49.366Z,17.57
2022-10-12T15:24:19.705Z,17.54
2022-10-12T15:26:47.725Z,17.33
2022-10-12T15:29:15.718Z,16.98
2022-10-12T15:31:46.624Z,17.11
2022-10-12T15:34:17.001Z,16.89
2022-10-12T15:36:46.322Z,16.85
2022-10-12T15:39:14.309Z,16.75
2022-10-12T15:41:42.302Z,17.02
2022-10-12T15:44:10.999Z,16.69
2022-10-12T15:46:39.003Z,16.50
2022-10-12T15:49:07.017Z,16.59
2022-10-12T15:51:37.095Z,16.83
2022-10-12T15:54:06.557Z,16.56
2022-10-12T15:56:34.833Z,16.34
2022-10-12T15:59:02.849Z,16.40
2022-10-12T16:01:30.870Z,16.49
2022-10-12T16:03:58.951Z,16.37
2022-10-12T16:06:26.952Z,16.46
2022-10-12T16:08:54.978Z,16.42
2022-10-12T16:11:24.704Z,16.65
2022-10-12T16:13:56.657Z,16.39
2022-10-12T16:16:25.070Z,16.46
2022-10-12T16:18:53.837Z,16.29
2022-10-12T16:21:24.175Z,16.14
2022-10-12T16:23:52.194Z,16.10
2022-10-12T16:26:20.220Z,15.88
2022-10-12T16:28:49.878Z,16.24
2022-10-12T16:31:18.361Z,16.12
2022-10-12T16:33:46.353Z,15.79
2022-10-12T16:36:16.155Z,15.90
2022-10-12T16:38:44.612Z,15.94
2022-10-12T16:41:13.378Z,15.84
2022-10-12T16:43:41.417Z,15.39
2022-10-12T16:46:10.974Z,15.26
2022-10-12T16:48:39.055Z,15.44
2022-10-12T16:51:08.056Z,15.17
2022-10-12T16:53:36.388Z,15.05
2022-10-12T16:56:04.994Z,15.01
2022-10-12T16:58:33.069Z,14.83
2022-10-12T17:01:08.567Z,14.95
2022-10-12T17:03:37.969Z,14.59
2022-10-12T17:06:06.164Z,14.68
2022-10-12T17:08:35.508Z,14.66
2022-10-12T17:11:05.892Z,14.62
2022-10-12T17:13:35.953Z,14.61
2022-10-12T17:16:25.287Z,14.46
2022-10-12T17:18:59.763Z,14.19
2022-10-12T17:21:27.971Z,14.34
2022-10-12T17:23:56.644Z,14.34
2022-10-12T17:26:24.594Z,14.23
2022-10-12T17:28:52.634Z,14.01
2022-10-12T17:31:20.678Z,13.89
2022-10-12T17:33:49.068Z,13.90
2022-10-12T17:36:18.490Z,14.16
2022-10-12T17:38:49.313Z,14.00
2022-10-12T17:41:17.360Z,13.52
2022-10-12T17:43:45.324Z,13.47
2022-10-12T17:46:13.352Z,13.75
2022-10-12T17:48:41.355Z,13.84
2022-10-12T17:51:12.686Z,13.75
2022-10-12T17:53:44.400Z,13.52
2022-10-12T17:56:15.861Z,13.69
2022-10-12T17:58:46.171Z,13.18
2022-10-12T18:01:15.862Z,13.37
2022-10-12T18:03:47.583Z,13.33
2022-10-12T18:06:20.234Z,13.19
2022-10-12T18:08:50.251Z,13.12
2022-10-12T18:11:25.581Z,12.95
2022-10-12T18:13:54.695Z,13.22
2022-10-12T18:16:24.967Z,13.18
2022-10-12T18:18:54.560Z,13.12
2022-10-12T18:21:23.852Z,13.21
2022-10-12T18:23:54.956Z,12.95
2022-10-12T18:26:26.380Z,13.01
2022-10-12T18:28:55.524Z,12.91
2022-10-12T18:31:24.392Z,12.56
2022-10-12T18:33:52.764Z,12.77
2022-10-12T18:36:21.475Z,12.78
2022-10-12T18:38:49.527Z,12.77
2022-10-12T18:41:22.003Z,12.57
2022-10-12T18:43:50.159Z,12.56
2022-10-12T18:46:18.414Z,12.46
2022-10-12T18:48:49.679Z,12.32
2022-10-12T18:51:19.324Z,12.53
2022-10-12T18:53:47.444Z,12.41
2022-10-12T18:56:15.685Z,12.34
2022-10-12T18:58:47.195Z,12.38
2022-10-12T19:01:16.429Z,12.37
2022-10-12T19:03:44.476Z,12.22
2022-10-12T19:06:14.128Z,12.35
2022-10-12T19:08:43.365Z,12.44
2022-10-12T19:11:12.035Z,12.21
2022-10-12T19:13:40.466Z,12.15
2022-10-12T19:16:10.981Z,12.44
2022-10-12T19:18:40.024Z,12.15
2022-10-12T19:21:09.634Z,12.21
2022-10-12T19:23:37.666Z,11.98
2022-10-12T19:26:07.239Z,12.03
2022-10-12T19:28:35.605Z,11.91
2022-10-12T19:31:08.306Z,12.18
2022-10-12T19:33:37.840Z,12.05
2022-10-12T19:36:06.397Z,11.82
2022-10-12T19:38:34.756Z,12.02
2022-10-12T19:41:05.751Z,11.62
2022-10-12T19:43:34.377Z,11.55
2022-10-12T19:46:05.080Z,11.73
2022-10-12T19:48:35.676Z,11.61
2022-10-12T19:51:09.060Z,11.62
2022-10-12T19:53:37.696Z,11.81
2022-10-12T19:56:07.121Z,11.81
2022-10-12T19:58:35.140Z,11.85
2022-10-12T20:01:03.865Z,11.83
2022-10-12T20:03:32.080Z,11.48
2022-10-12T20:06:00.515Z,11.38
2022-10-12T20:08:29.899Z,11.39
2022-10-12T20:10:59.914Z,11.30
2022-10-12T20:13:28.175Z,11.28
2022-10-12T20:15:56.736Z,11.15
2022-10-12T20:18:25.036Z,11.09
2022-10-12T20:20:53.344Z,11.25
2022-10-12T20:23:21.768Z,11.24
2022-10-12T20:25:52.083Z,10.95
2022-10-12T20:28:20.544Z,11.02
2022-10-12T20:30:49.098Z,11.11
2022-10-12T20:33:17.377Z,11.32
2022-10-12T20:35:52.082Z,11.31
2022-10-12T20:38:21.084Z,11.28
2022-10-12T20:40:51.835Z,11.11
2022-10-12T20:43:23.810Z,11.05
2022-10-12T20:45:51.867Z,11.02
2022-10-12T20:48:19.893Z,11.21
2022-10-12T20:50:47.912Z,10.96
2022-10-12T20:53:15.906Z,10.84
2022-10-12T20:55:43.864Z,11.12
2022-10-12T20:58:11.947Z,10.55
2022-10-12T21:00:43.718Z,10.64
2022-10-12T21:03:11.780Z,10.67
2022-10-12T21:05:39.759Z,10.87
2022-10-12T21:08:09.842Z,10.66
2022-10-12T21:10:40.134Z,10.56
2022-10-12T21:13:10.547Z,10.41
2022-10-12T21:15:40.641Z,10.22
2022-10-12T21:18:09.964Z,10.51
2022-10-12T21:20:37.941Z,10.77
2022-10-12T21:23:05.959Z,10.55
2022-10-12T21:25:33.932Z,10.53
2022-10-12T21:28:01.953Z,10.40
2022-10-12T21:30:30.003Z,10.32
2022-10-12T21:32:57.964Z,10.27
2022-10-12T21:35:27.755Z,10.40
2022-10-12T21:37:55.745Z,10.34
2022-10-12T21:40:23.773Z,10.54
2022-10-12T21:42:54.128Z,10.30
2022-10-12T21:45:22.129Z,10.52
2022-10-12T21:47:52.441Z,10.37
2022-10-12T21:50:20.451Z,10.67
2022-10-12T21:52:50.415Z,10.62
2022-10-12T21:55:18.531Z,10.47
2022-10-12T21:57:46.484Z,9.83
2022-10-12T22:02:36.032Z,9.51
2022-10-12T22:05:04.315Z,9.67
2022-10-12T22:07:32.361Z,9.58
2022-10-12T22:10:00.345Z,9.67
2022-10-12T22:12:30.007Z,9.62
2022-10-12T22:15:00.317Z,9.77
2022-10-12T22:17:29.486Z,9.86
2022-10-12T22:20:01.504Z,9.70
2022-10-12T22:22:30.555Z,9.66
2022-10-12T22:25:00.847Z,9.83
2022-10-12T22:27:33.173Z,9.92
2022-10-12T22:30:01.199Z,10.05
2022-10-12T22:32:31.537Z,10.08
2022-10-12T22:35:00.967Z,10.12
2022-10-12T22:37:28.974Z,10.24
2022-10-12T22:39:56.951Z,10.00
2022-10-12T22:42:24.927Z,9.80
2022-10-12T22:44:52.926Z,10.02
2022-10-12T22:47:20.924Z,9.76
2022-10-12T22:49:48.869Z,9.67
2022-10-12T22:52:18.407Z,9.57
2022-10-12T22:54:46.639Z,9.56
2022-10-12T22:57:16.967Z,9.38
2022-10-12T22:59:44.914Z,9.57
2022-10-12T23:02:15.237Z,9.39
2022-10-12T23:04:43.262Z,9.48
2022-10-12T23:07:11.216Z,9.33
2022-10-12T23:09:41.243Z,9.13
2022-10-12T23:12:11.612Z,9.38
2022-10-12T23:14:39.608Z,9.21
2022-10-12T23:17:07.571Z,9.32
2022-10-12T23:19:35.642Z,9.59
2022-10-12T23:22:04.384Z,9.58
2022-10-12T23:24:32.911Z,9.66
2022-10-12T23:27:02.234Z,9.79
2022-10-12T23:29:30.534Z,9.84
2022-10-12T23:31:58.495Z,9.77
2022-10-12T23:34:26.534Z,9.48
2022-10-12T23:36:54.828Z,9.40
2022-10-12T23:39:22.882Z,9.44
2022-10-12T23:41:51.007Z,9.39
2022-10-12T23:44:20.326Z,9.39
2022-10-12T23:46:48.311Z,9.20
2022-10-12T23:49:16.324Z,9.30
2022-10-12T23:51:44.469Z,9.34
2022-10-12T23:54:12.439Z,9.29
2022-10-12T23:56:40.419Z,8.92
2022-10-12T23:59:08.377Z,9.26
